createdAt,value
2022-09-12T00:01:27.561Z,12.88
2022-09-12T00:03:54.456Z,12.38
2022-09-12T00:06:24.480Z,12.40
2022-09-12T00:08:51.238Z,12.45
2022-09-12T00:11:17.508Z,12.59
2022-09-12T00:13:43.715Z,12.71
2022-09-12T00:16:19.775Z,12.81
2022-09-12T00:18:46.104Z,12.81
2022-09-12T00:21:12.718Z,12.45
2022-09-12T00:23:38.917Z,12.59
2022-09-12T00:26:05.427Z,12.74
2022-09-12T00:28:31.908Z,12.71
2022-09-12T00:30:58.093Z,12.64
2022-09-12T00:33:24.302Z,12.61
2022-09-12T00:35:51.238Z,12.41
2022-09-12T00:38:17.446Z,12.32
2022-09-12T00:40:43.747Z,12.06
2022-09-12T00:43:33.249Z,12.28
2022-09-12T00:46:00.444Z,12.43
2022-09-12T00:48:28.787Z,12.47
2022-09-12T00:50:54.985Z,12.50
2022-09-12T00:53:21.184Z,12.55
2022-09-12T00:55:47.397Z,12.53
2022-09-12T00:58:14.835Z,12.52
2022-09-12T01:00:41.038Z,12.46
2022-09-12T01:03:08.164Z,12.32
2022-09-12T01:05:34.796Z,12.24
2022-09-12T01:08:01.132Z,12.21
2022-09-12T01:10:27.333Z,12.15
2022-09-12T01:12:53.526Z,12.22
2022-09-12T01:15:19.728Z,12.22
2022-09-12T01:18:09.168Z,12.28
2022-09-12T01:20:37.800Z,12.09
2022-09-12T01:23:22.800Z,11.91
2022-09-12T01:26:00.896Z,11.98
2022-09-12T01:28:30.935Z,12.07
2022-09-12T01:30:57.077Z,11.99
2022-09-12T01:33:41.834Z,11.72
2022-09-12T01:36:11.697Z,11.70
2022-09-12T01:38:38.569Z,11.85
2022-09-12T01:41:04.704Z,11.60
2022-09-12T01:43:49.336Z,11.71
2022-09-12T01:46:19.380Z,11.82
2022-09-12T01:48:47.568Z,11.80
2022-09-12T01:51:18.589Z,11.89
2022-09-12T01:53:45.518Z,11.96
2022-09-12T01:56:19.023Z,11.98
2022-09-12T01:58:45.950Z,11.98
2022-09-12T02:01:13.546Z,11.94
2022-09-12T02:03:41.394Z,11.80
2022-09-12T02:06:08.531Z,11.88
2022-09-12T02:08:36.730Z,11.97
2022-09-12T02:11:05.911Z,11.95
2022-09-12T02:13:33.241Z,11.97
2022-09-12T02:16:01.562Z,11.88
2022-09-12T02:18:27.780Z,11.87
2022-09-12T02:20:53.989Z,11.88
2022-09-12T02:23:21.002Z,11.89
2022-09-12T02:25:47.368Z,11.91
2022-09-12T02:28:14.199Z,11.94
2022-09-12T02:30:45.544Z,11.90
2022-09-12T02:33:20.420Z,11.88
2022-09-12T02:35:47.574Z,11.75
2022-09-12T02:38:25.960Z,11.69
2022-09-12T02:40:52.210Z,11.52
2022-09-12T02:43:18.405Z,11.46
2022-09-12T02:45:44.654Z,11.35
2022-09-12T02:48:24.308Z,11.40
2022-09-12T02:50:50.505Z,11.54
2022-09-12T02:53:16.697Z,11.58
2022-09-12T02:55:42.896Z,11.58
2022-09-12T02:58:10.982Z,11.64
2022-09-12T03:00:38.033Z,11.65
2022-09-12T03:03:43.349Z,11.67
2022-09-12T03:06:48.343Z,11.47
2022-09-12T03:09:25.135Z,11.44
2022-09-12T03:11:51.280Z,11.50
2022-09-12T03:14:26.287Z,11.55
2022-09-12T03:17:05.061Z,11.58
2022-09-12T03:19:51.146Z,11.58
2022-09-12T03:22:20.434Z,11.59
2022-09-12T03:24:51.952Z,11.55
2022-09-12T03:27:22.657Z,11.49
2022-09-12T03:29:48.852Z,11.46
2022-09-12T03:32:15.041Z,11.40
2022-09-12T03:34:41.235Z,11.29
2022-09-12T03:37:07.430Z,11.13
2022-09-12T03:39:33.637Z,10.70
2022-09-12T03:41:59.833Z,10.65
2022-09-12T03:44:26.043Z,10.85
2022-09-12T03:46:52.240Z,10.95
2022-09-12T03:49:18.445Z,10.90
2022-09-12T03:51:44.637Z,10.94
2022-09-12T03:54:10.930Z,11.05
2022-09-12T03:56:37.125Z,11.06
2022-09-12T03:59:06.349Z,10.64
2022-09-12T04:01:32.586Z,10.63
2022-09-12T04:03:58.813Z,10.80
2022-09-12T04:06:25.001Z,10.47
2022-09-12T04:08:51.901Z,10.66
2022-09-12T04:11:18.315Z,10.83
2022-09-12T04:13:44.616Z,10.93
2022-09-12T04:16:11.138Z,10.97
2022-09-12T04:18:37.372Z,10.78
2022-09-12T04:21:04.416Z,10.72
2022-09-12T04:23:30.619Z,10.67
2022-09-12T04:25:57.155Z,10.81
2022-09-12T04:28:23.371Z,10.90
2022-09-12T04:30:49.871Z,10.94
2022-09-12T04:33:16.086Z,10.97
2022-09-12T04:35:42.286Z,10.81
2022-09-12T04:38:08.669Z,10.87
2022-09-12T04:40:35.049Z,10.93
2022-09-12T04:43:01.241Z,10.87
2022-09-12T04:45:27.436Z,10.94
2022-09-12T04:47:53.638Z,10.96
2022-09-12T04:50:19.864Z,10.93
2022-09-12T04:52:52.453Z,10.91
2022-09-12T04:55:18.666Z,10.79
2022-09-12T04:57:44.903Z,10.69
2022-09-12T05:00:11.393Z,10.57
2022-09-12T05:02:37.628Z,10.62
2022-09-12T05:05:03.910Z,10.38
2022-09-12T05:07:30.110Z,10.40
2022-09-12T05:09:56.316Z,10.66
2022-09-12T05:12:22.500Z,10.94
2022-09-12T05:14:48.697Z,11.08
2022-09-12T05:17:14.899Z,11.21
2022-09-12T05:19:41.104Z,11.54
2022-09-12T05:22:07.309Z,11.98
2022-09-12T05:24:33.512Z,12.45
2022-09-12T05:26:59.706Z,12.45
2022-09-12T05:29:25.907Z,12.29
2022-09-12T05:31:52.170Z,12.05
2022-09-12T05:34:18.798Z,11.94
2022-09-12T05:36:45.017Z,11.78
2022-09-12T05:39:11.221Z,11.82
2022-09-12T05:41:37.533Z,11.73
2022-09-12T05:44:04.517Z,11.68
2022-09-12T05:46:31.745Z,11.62
2022-09-12T05:49:01.908Z,11.60
2022-09-12T05:51:28.329Z,11.53
2022-09-12T05:53:55.499Z,11.52
2022-09-12T05:56:22.362Z,11.50
2022-09-12T05:58:50.894Z,11.49
2022-09-12T06:01:17.462Z,11.53
2022-09-12T06:03:50.553Z,11.67
2022-09-12T06:06:17.395Z,11.84
2022-09-12T06:08:44.133Z,12.18
2022-09-12T06:11:11.428Z,13.14
2022-09-12T06:13:37.732Z,13.71
2022-09-12T06:16:07.837Z,13.95
2022-09-12T06:18:34.520Z,13.88
2022-09-12T06:21:10.658Z,13.62
2022-09-12T06:23:36.961Z,13.64
2022-09-12T06:26:03.257Z,13.59
2022-09-12T06:28:29.571Z,13.62
2022-09-12T06:31:01.115Z,13.75
2022-09-12T06:33:27.364Z,13.94
2022-09-12T06:35:53.579Z,14.39
2022-09-12T06:38:19.778Z,14.82
2022-09-12T06:40:45.981Z,15.00
2022-09-12T06:43:12.332Z,15.49
2022-09-12T06:45:38.559Z,16.33
2022-09-12T06:48:04.789Z,16.93
2022-09-12T06:50:30.997Z,17.61
2022-09-12T06:52:57.203Z,17.90
2022-09-12T06:55:27.167Z,18.09
2022-09-12T06:57:54.176Z,18.71
2022-09-12T07:00:20.402Z,18.70
2022-09-12T07:02:46.596Z,18.79
2022-09-12T07:05:12.806Z,18.51
2022-09-12T07:07:38.997Z,18.80
2022-09-12T07:10:05.401Z,18.53
2022-09-12T07:12:31.588Z,18.23
2022-09-12T07:14:57.792Z,18.41
2022-09-12T07:17:23.981Z,18.57
2022-09-12T07:19:50.177Z,18.62
2022-09-12T07:22:16.370Z,18.79
2022-09-12T07:24:42.580Z,18.98
2022-09-12T07:27:08.782Z,19.35
2022-09-12T07:29:37.701Z,19.39
2022-09-12T07:32:04.377Z,19.18
2022-09-12T07:34:30.578Z,19.58
2022-09-12T07:36:56.768Z,19.11
2022-09-12T07:39:22.968Z,19.06
2022-09-12T07:41:49.162Z,18.42
2022-09-12T07:44:15.363Z,17.87
2022-09-12T07:46:41.569Z,17.54
2022-09-12T07:49:08.539Z,17.48
2022-09-12T07:51:34.856Z,17.42
2022-09-12T07:54:01.071Z,17.58
2022-09-12T07:56:30.223Z,18.41
2022-09-12T07:58:58.198Z,19.00
2022-09-12T08:01:24.469Z,18.76
2022-09-12T08:03:53.259Z,18.64
2022-09-12T08:06:20.029Z,18.85
2022-09-12T08:08:46.376Z,19.12
2022-09-12T08:11:13.068Z,19.06
2022-09-12T08:13:39.624Z,18.94
2022-09-12T08:16:06.902Z,19.31
2022-09-12T08:18:33.161Z,19.39
2022-09-12T08:21:03.543Z,19.31
2022-09-12T08:23:29.907Z,18.79
2022-09-12T08:26:03.091Z,18.22
2022-09-12T08:28:31.926Z,17.66
2022-09-12T08:31:01.602Z,17.46
2022-09-12T08:33:28.259Z,18.15
2022-09-12T08:35:54.464Z,18.66
2022-09-12T08:38:20.670Z,19.17
2022-09-12T08:40:50.280Z,19.36
2022-09-12T08:43:23.906Z,19.52
2022-09-12T08:46:02.035Z,19.36
2022-09-12T08:48:28.284Z,18.46
2022-09-12T08:50:54.481Z,18.45
2022-09-12T08:53:21.333Z,18.17
2022-09-12T08:55:52.660Z,18.20
2022-09-12T08:58:19.433Z,18.04
2022-09-12T09:00:50.668Z,18.34
2022-09-12T09:03:19.927Z,18.49
2022-09-12T09:05:49.941Z,18.70
2022-09-12T09:08:16.086Z,19.19
2022-09-12T09:10:46.892Z,19.52
2022-09-12T09:13:13.044Z,20.02
2022-09-12T09:15:40.869Z,20.23
2022-09-12T09:18:11.760Z,20.24
2022-09-12T09:20:42.939Z,20.49
2022-09-12T09:23:09.089Z,20.63
2022-09-12T09:25:38.098Z,20.86
2022-09-12T09:28:04.835Z,20.08
2022-09-12T09:30:31.041Z,20.67
2022-09-12T09:32:58.421Z,20.60
2022-09-12T09:35:36.981Z,20.75
2022-09-12T09:38:07.175Z,20.56
2022-09-12T09:40:36.778Z,20.62
2022-09-12T09:43:02.935Z,20.93
2022-09-12T09:45:29.145Z,20.79
2022-09-12T09:47:55.304Z,21.15
2022-09-12T09:50:21.528Z,21.30
2022-09-12T09:52:47.767Z,21.10
2022-09-12T09:55:15.384Z,20.87
2022-09-12T09:57:41.825Z,20.75
2022-09-12T10:00:24.186Z,21.01
2022-09-12T10:03:02.573Z,20.85
2022-09-12T10:05:28.943Z,20.78
2022-09-12T10:07:55.150Z,20.72
2022-09-12T10:10:21.403Z,20.32
2022-09-12T10:12:47.606Z,20.39
2022-09-12T10:15:20.692Z,20.34
2022-09-12T10:17:47.558Z,20.62
2022-09-12T10:20:29.118Z,20.78
2022-09-12T10:22:55.327Z,20.84
2022-09-12T10:25:21.585Z,20.75
2022-09-12T10:27:52.302Z,20.76
2022-09-12T10:30:19.077Z,21.02
2022-09-12T10:32:46.098Z,21.35
2022-09-12T10:35:21.761Z,21.11
2022-09-12T10:37:52.326Z,20.86
2022-09-12T10:40:25.825Z,20.89
2022-09-12T10:42:55.564Z,20.82
2022-09-12T10:45:25.944Z,21.08
2022-09-12T10:47:52.582Z,21.20
2022-09-12T10:50:23.267Z,20.92
2022-09-12T10:52:49.605Z,20.59
2022-09-12T10:55:15.814Z,20.45
2022-09-12T10:57:46.454Z,21.07
2022-09-12T11:00:13.177Z,21.32
2022-09-12T11:02:43.993Z,21.54
2022-09-12T11:05:22.951Z,20.93
2022-09-12T11:07:56.893Z,20.68
2022-09-12T11:10:38.053Z,21.23
2022-09-12T11:13:17.318Z,20.92
2022-09-12T11:16:01.671Z,20.79
2022-09-12T11:18:40.942Z,20.88
2022-09-12T11:21:26.143Z,21.07
2022-09-12T11:23:52.305Z,21.22
2022-09-12T11:26:37.222Z,21.15
2022-09-12T11:29:07.257Z,21.19
2022-09-12T11:31:52.424Z,21.02
2022-09-12T11:34:47.734Z,21.16
2022-09-12T11:37:19.614Z,21.39
2022-09-12T11:39:46.023Z,21.35
2022-09-12T11:42:15.042Z,21.34
2022-09-12T11:44:45.742Z,21.38
2022-09-12T11:47:12.375Z,21.44
2022-09-12T11:49:40.093Z,21.49
2022-09-12T11:52:15.321Z,21.59
2022-09-12T11:54:42.494Z,21.35
2022-09-12T11:57:11.806Z,21.34
2022-09-12T12:00:04.314Z,21.05
2022-09-12T12:02:31.418Z,21.22
2022-09-12T12:05:00.507Z,21.05
2022-09-12T12:07:26.693Z,20.96
2022-09-12T12:09:52.902Z,20.93
2022-09-12T12:12:20.964Z,20.79
2022-09-12T12:14:47.737Z,20.81
2022-09-12T12:17:14.830Z,20.35
2022-09-12T12:19:41.020Z,20.33
2022-09-12T12:22:20.479Z,20.53
2022-09-12T12:24:53.797Z,20.55
2022-09-12T12:27:43.368Z,20.50
2022-09-12T12:30:27.995Z,20.57
2022-09-12T12:32:59.072Z,20.54
2022-09-12T12:35:44.249Z,20.50
2022-09-12T12:38:33.681Z,20.58
2022-09-12T12:41:25.613Z,20.64
2022-09-12T12:43:52.195Z,20.64
2022-09-12T12:46:18.867Z,20.79
2022-09-12T12:48:51.209Z,20.78
2022-09-12T12:51:22.297Z,20.68
2022-09-12T12:53:48.484Z,20.81
2022-09-12T12:56:33.694Z,20.71
2022-09-12T12:59:00.699Z,20.37
2022-09-12T13:01:26.927Z,20.41
2022-09-12T13:03:53.095Z,20.45
2022-09-12T13:06:41.175Z,20.48
2022-09-12T13:09:23.183Z,20.65
2022-09-12T13:11:55.726Z,20.63
2022-09-12T13:14:42.177Z,20.72
2022-09-12T13:17:08.379Z,20.61
2022-09-12T13:19:36.310Z,20.69
2022-09-12T13:22:03.887Z,20.61
2022-09-12T13:24:30.092Z,20.55
2022-09-12T13:26:56.370Z,20.43
2022-09-12T13:29:22.914Z,20.40
2022-09-12T13:31:49.553Z,20.48
2022-09-12T13:34:17.998Z,20.45
2022-09-12T13:36:52.927Z,20.40
2022-09-12T13:39:25.410Z,20.41
2022-09-12T13:42:03.901Z,20.29
2022-09-12T13:44:30.121Z,20.49
2022-09-12T13:46:58.461Z,20.39
2022-09-12T13:49:34.493Z,20.41
2022-09-12T13:52:03.926Z,20.33
2022-09-12T13:54:30.168Z,20.27
2022-09-12T13:56:56.370Z,20.30
2022-09-12T13:59:22.577Z,20.28
2022-09-12T14:01:48.914Z,20.19
2022-09-12T14:04:16.100Z,20.24
2022-09-12T14:06:46.290Z,20.07
2022-09-12T14:09:13.289Z,20.03
2022-09-12T14:11:39.477Z,20.06
2022-09-12T14:14:06.475Z,20.01
2022-09-12T14:16:33.234Z,20.02
2022-09-12T14:18:59.584Z,19.99
2022-09-12T14:21:28.806Z,19.98
2022-09-12T14:23:55.155Z,20.03
2022-09-12T14:26:21.481Z,19.95
2022-09-12T14:28:47.758Z,19.84
2022-09-12T14:31:14.071Z,19.86
2022-09-12T14:33:46.792Z,19.91
2022-09-12T14:36:32.232Z,19.97
2022-09-12T14:38:59.440Z,19.87
2022-09-12T14:41:36.068Z,19.94
2022-09-12T14:44:03.161Z,19.97
2022-09-12T14:46:29.366Z,19.99
2022-09-12T14:48:59.993Z,20.08
2022-09-12T14:51:32.633Z,20.06
2022-09-12T14:56:38.699Z,20.35
2022-09-12T14:59:23.584Z,20.44
2022-09-12T15:01:49.830Z,20.60
2022-09-12T15:04:36.194Z,20.57
2022-09-12T15:07:13.353Z,20.61
2022-09-12T15:09:44.042Z,20.59
2022-09-12T15:12:12.713Z,20.60
2022-09-12T15:14:38.923Z,20.35
2022-09-12T15:17:05.112Z,20.39
2022-09-12T15:19:31.302Z,20.18
2022-09-12T15:21:57.578Z,20.11
2022-09-12T15:24:23.778Z,20.00
2022-09-12T15:26:50.005Z,19.92
2022-09-12T15:29:16.203Z,19.83
2022-09-12T15:31:42.411Z,19.77
2022-09-12T15:34:08.605Z,19.72
2022-09-12T15:36:34.800Z,19.59
2022-09-12T15:39:00.984Z,19.31
2022-09-12T15:41:33.937Z,19.23
2022-09-12T15:44:00.129Z,19.19
2022-09-12T15:46:26.394Z,19.22
2022-09-12T15:48:52.652Z,19.22
2022-09-12T15:51:19.710Z,19.28
2022-09-12T15:53:46.054Z,19.24
2022-09-12T15:56:12.290Z,19.17
2022-09-12T15:58:49.720Z,19.21
2022-09-12T16:01:23.752Z,19.14
2022-09-12T16:03:49.982Z,19.19
2022-09-12T16:06:16.199Z,19.26
2022-09-12T16:08:42.480Z,19.20
2022-09-12T16:11:16.767Z,19.23
2022-09-12T16:13:42.967Z,19.12
2022-09-12T16:16:09.234Z,19.07
2022-09-12T16:18:35.514Z,18.98
2022-09-12T16:21:01.726Z,18.92
2022-09-12T16:23:27.922Z,18.78
2022-09-12T16:25:57.738Z,18.73
2022-09-12T16:28:24.087Z,18.64
2022-09-12T16:31:00.015Z,18.54
2022-09-12T16:33:26.425Z,18.51
2022-09-12T16:35:52.721Z,18.47
2022-09-12T16:38:18.934Z,18.41
2022-09-12T16:40:45.128Z,18.40
2022-09-12T16:43:11.347Z,18.27
2022-09-12T16:45:37.570Z,18.20
2022-09-12T16:48:03.802Z,18.14
2022-09-12T16:50:29.998Z,18.17
2022-09-12T16:52:56.192Z,18.20
2022-09-12T16:55:22.483Z,18.16
2022-09-12T16:57:48.706Z,18.06
2022-09-12T17:00:14.936Z,17.91
2022-09-12T17:02:41.190Z,17.86
2022-09-12T17:05:07.628Z,17.76
2022-09-12T17:07:33.830Z,17.73
2022-09-12T17:10:00.028Z,17.77
2022-09-12T17:12:26.254Z,17.80
2022-09-12T17:14:52.466Z,17.84
2022-09-12T17:17:18.669Z,17.86
2022-09-12T17:19:44.860Z,17.75
2022-09-12T17:22:11.052Z,17.73
2022-09-12T17:24:37.446Z,17.72
2022-09-12T17:27:03.699Z,17.71
2022-09-12T17:29:29.893Z,17.59
2022-09-12T17:31:56.081Z,17.55
2022-09-12T17:34:22.272Z,17.48
2022-09-12T17:36:48.502Z,17.44
2022-09-12T17:39:14.711Z,17.40
2022-09-12T17:41:40.984Z,17.35
2022-09-12T17:44:07.172Z,17.39
2022-09-12T17:46:34.375Z,17.42
2022-09-12T17:49:00.630Z,17.41
2022-09-12T17:51:27.444Z,17.41
2022-09-12T17:54:00.610Z,17.42
2022-09-12T17:56:27.282Z,17.44
2022-09-12T17:58:54.016Z,17.42
2022-09-12T18:01:20.280Z,17.39
2022-09-12T18:03:46.539Z,17.36
2022-09-12T18:06:12.740Z,17.34
2022-09-12T18:08:38.953Z,17.35
2022-09-12T18:11:05.289Z,17.35
2022-09-12T18:13:32.116Z,17.31
2022-09-12T18:16:05.508Z,17.29
2022-09-12T18:18:31.803Z,17.24
2022-09-12T18:20:58.010Z,17.25
2022-09-12T18:23:24.240Z,17.24
2022-09-12T18:25:56.141Z,17.16
2022-09-12T18:28:22.344Z,17.17
2022-09-12T18:30:48.589Z,17.13
2022-09-12T18:33:14.806Z,17.13
2022-09-12T18:35:40.994Z,17.11
2022-09-12T18:38:07.193Z,17.12
2022-09-12T18:40:33.381Z,17.03
2022-09-12T18:42:59.602Z,17.01
2022-09-12T18:45:25.954Z,17.00
2022-09-12T18:47:52.152Z,16.98
2022-09-12T18:50:18.343Z,17.03
2022-09-12T18:52:44.557Z,17.04
2022-09-12T18:55:10.749Z,16.96
2022-09-12T18:57:36.958Z,16.93
2022-09-12T19:00:03.702Z,16.91
2022-09-12T19:02:29.910Z,16.85
2022-09-12T19:04:57.800Z,16.84
2022-09-12T19:07:23.997Z,16.84
2022-09-12T19:09:50.194Z,16.88
2022-09-12T19:12:16.396Z,16.82
2022-09-12T19:14:42.602Z,16.85
2022-09-12T19:17:08.804Z,16.81
2022-09-12T19:19:37.663Z,16.86
2022-09-12T19:22:06.645Z,16.89
2022-09-12T19:24:32.841Z,16.90
2022-09-12T19:26:59.053Z,16.96
2022-09-12T19:29:25.260Z,16.96
2022-09-12T19:31:51.994Z,16.90
2022-09-12T19:34:18.198Z,16.87
2022-09-12T19:36:46.382Z,16.81
2022-09-12T19:39:13.089Z,16.79
2022-09-12T19:41:39.289Z,16.76
2022-09-12T19:44:05.502Z,16.76
2022-09-12T19:46:31.781Z,16.79
2022-09-12T19:48:58.044Z,16.82
2022-09-12T19:51:24.232Z,16.79
2022-09-12T19:53:50.438Z,16.87
2022-09-12T19:56:16.625Z,16.85
2022-09-12T19:58:43.460Z,16.78
2022-09-12T20:01:19.278Z,16.75
2022-09-12T20:03:45.580Z,16.73
2022-09-12T20:06:12.469Z,16.75
2022-09-12T20:08:38.810Z,16.72
2022-09-12T20:11:05.054Z,16.72
2022-09-12T20:13:31.261Z,16.68
2022-09-12T20:16:04.831Z,16.72
2022-09-12T20:18:31.065Z,16.64
2022-09-12T20:20:57.257Z,16.60
2022-09-12T20:23:23.503Z,16.58
2022-09-12T20:25:49.702Z,16.61
2022-09-12T20:28:15.919Z,16.58
2022-09-12T20:30:42.119Z,16.54
2022-09-12T20:33:08.323Z,16.51
2022-09-12T20:35:34.511Z,16.53
2022-09-12T20:38:00.719Z,16.54
2022-09-12T20:40:26.944Z,16.52
2022-09-12T20:42:53.158Z,16.46
2022-09-12T20:45:19.347Z,16.42
2022-09-12T20:47:45.556Z,16.41
2022-09-12T20:50:11.758Z,16.40
2022-09-12T20:52:37.956Z,16.44
2022-09-12T20:55:04.258Z,16.45
2022-09-12T20:57:30.463Z,16.45
2022-09-12T20:59:56.667Z,16.40
2022-09-12T21:02:23.002Z,16.35
2022-09-12T21:04:49.266Z,16.34
2022-09-12T21:07:15.471Z,16.36
2022-09-12T21:09:41.666Z,16.43
2022-09-12T21:12:07.873Z,16.46
2022-09-12T21:14:34.072Z,16.41
2022-09-12T21:17:00.272Z,16.42
2022-09-12T21:19:26.472Z,16.45
2022-09-12T21:21:52.683Z,16.41
2022-09-12T21:24:18.884Z,16.37
2022-09-12T21:26:45.077Z,16.31
2022-09-12T21:29:11.291Z,16.34
2022-09-12T21:31:37.537Z,16.36
2022-09-12T21:34:03.758Z,16.40
2022-09-12T21:36:29.962Z,16.39
2022-09-12T21:38:58.903Z,16.35
2022-09-12T21:41:25.097Z,16.35
2022-09-12T21:43:51.300Z,16.40
2022-09-12T21:46:17.533Z,16.39
2022-09-12T21:48:43.769Z,16.40
2022-09-12T21:51:09.959Z,16.38
2022-09-12T21:53:36.223Z,16.35
2022-09-12T21:56:03.317Z,16.28
2022-09-12T21:58:29.523Z,16.25
2022-09-12T22:00:55.748Z,16.22
2022-09-12T22:03:21.964Z,16.23
2022-09-12T22:05:51.814Z,16.25
2022-09-12T22:08:18.019Z,16.23
2022-09-12T22:10:44.212Z,16.24
2022-09-12T22:13:10.422Z,16.25
2022-09-12T22:15:40.597Z,16.30
2022-09-12T22:18:07.216Z,16.29
2022-09-12T22:20:33.415Z,16.18
2022-09-12T22:22:59.633Z,16.22
2022-09-12T22:25:25.826Z,16.19
2022-09-12T22:27:52.159Z,16.17
2022-09-12T22:30:18.480Z,16.14
2022-09-12T22:32:44.697Z,16.06
2022-09-12T22:35:10.876Z,16.00
2022-09-12T22:37:37.065Z,15.99
2022-09-12T22:40:03.402Z,16.03
2022-09-12T22:42:29.654Z,16.10
2022-09-12T22:44:55.841Z,16.16
2022-09-12T22:47:22.043Z,16.17
2022-09-12T22:49:48.252Z,16.16
2022-09-12T22:52:14.843Z,16.11
2022-09-12T22:54:41.265Z,16.13
2022-09-12T22:57:07.467Z,16.08
2022-09-12T22:59:33.670Z,16.07
2022-09-12T23:01:59.856Z,15.92
2022-09-12T23:04:26.106Z,15.89
2022-09-12T23:06:52.294Z,15.82
2022-09-12T23:09:18.494Z,15.81
2022-09-12T23:11:44.694Z,15.82
2022-09-12T23:14:10.907Z,15.87
2022-09-12T23:16:37.158Z,15.90
2022-09-12T23:19:03.384Z,15.85
2022-09-12T23:21:29.568Z,15.88
2022-09-12T23:23:55.773Z,15.87
2022-09-12T23:26:25.397Z,15.87
2022-09-12T23:28:52.265Z,15.87
2022-09-12T23:31:18.622Z,15.85
2022-09-12T23:33:44.880Z,15.81
2022-09-12T23:36:11.171Z,15.79
2022-09-12T23:38:37.443Z,15.76
2022-09-12T23:41:03.700Z,15.73
2022-09-12T23:43:29.898Z,15.77
2022-09-12T23:45:56.321Z,15.77
2022-09-12T23:48:22.557Z,15.79
2022-09-12T23:50:48.928Z,15.76
2022-09-12T23:53:15.500Z,15.74
2022-09-12T23:55:41.749Z,15.75
2022-09-12T23:58:07.941Z,15.75
